WetterOnline ( https://www.wetteronline.de )

Wetter aktuell Pfaffenweiler

Aktuelles Wetter: Feldberg/Schwarzwald (1493m)

6-stündlich | Neueste Meldungen
Ortszeit Temperatur Wetter
Sa, 25.05. 20:00 8.2° C wolkig
Sa, 25.05. 14:00 10.9° C wolkig
Sa, 25.05. 8:00 8.8° C wolkig
Sa, 25.05. 2:00 9.9° C bewölkt
Fr, 24.05. 20:00 10.9° C fast wolkenlos
Fr, 24.05. 14:00 10.8° C bewölkt
Fr, 24.05. 8:00 9.4° C leicht bewölkt
Fr, 24.05. 2:00 8.5° C fast wolkenlos
Ortszeit Temperatur Wetter
Sa, 25.05. 23:30 7.0° C leicht bewölkt
Sa, 25.05. 23:20 7.0° C leicht bewölkt
Sa, 25.05. 23:10 7.1° C fast wolkenlos
Sa, 25.05. 23:00 7.0° C fast wolkenlos
Sa, 25.05. 22:50 7.0° C fast wolkenlos
Sa, 25.05. 22:40 7.0° C leicht bewölkt
Sa, 25.05. 22:30 7.2° C bewölkt
Sa, 25.05. 22:00 7.2° C bedeckt
Sa, 25.05. 21:30 7.8° C bewölkt
Sa, 25.05. 21:00 8.1° C bewölkt
Sa, 25.05. 20:30 8.2° C bewölkt
Ortszeit Relative Feuchte Sichtweite
Sa, 25.05. 20:00 80% 30 km
Sa, 25.05. 14:00 68% 35 km
Sa, 25.05. 8:00 78% 27 km
Sa, 25.05. 2:00 70% 35 km
Fr, 24.05. 20:00 66% 50 km
Fr, 24.05. 14:00 75% 28 km
Fr, 24.05. 8:00 58% 60 km
Fr, 24.05. 2:00 63% 45 km
Ortszeit Relative Feuchte Sichtweite
Sa, 25.05. 23:30 90% 14 km
Sa, 25.05. 23:20 90% -
Sa, 25.05. 23:10 85% -
Sa, 25.05. 23:00 93% 8 km
Sa, 25.05. 22:50 93% -
Sa, 25.05. 22:40 95% -
Sa, 25.05. 22:30 93% 10 km
Sa, 25.05. 22:00 95% 12 km
Sa, 25.05. 21:30 84% 21 km
Sa, 25.05. 21:00 82% 24 km
Sa, 25.05. 20:30 81% 26 km
Ortszeit Niederschlagsmenge Niederschlagsart
Sa, 25.05. 20:00 0.2 l/m2 in 12 Std. Regen
Sa, 25.05. 14:00 0.0 l/m2 in 6 Std. -
Sa, 25.05. 8:00 0.0 l/m2 in 12 Std. -
Sa, 25.05. 2:00 0.0 l/m2 in 6 Std. -
Fr, 24.05. 20:00 0.0 l/m2 in 12 Std. -
Fr, 24.05. 14:00 0.0 l/m2 in 6 Std. -
Fr, 24.05. 8:00 0.0 l/m2 in 12 Std. -
Fr, 24.05. 2:00 0.0 l/m2 in 6 Std. -
Ortszeit Niederschlagsmenge Niederschlagsart
Sa, 25.05. 23:30 0.0 l/m2 in 1 Std. -
Sa, 25.05. 23:20 keine Meldung -
Sa, 25.05. 23:10 keine Meldung -
Sa, 25.05. 23:00 0.0 l/m2 in 1 Std. Regen
Sa, 25.05. 22:50 keine Meldung -
Sa, 25.05. 22:40 keine Meldung -
Sa, 25.05. 22:30 0.0 l/m2 in 1 Std. -
Sa, 25.05. 22:00 0.0 l/m2 in 1 Std. -
Sa, 25.05. 21:30 0.0 l/m2 in 1 Std. -
Sa, 25.05. 21:00 0.1 l/m2 in 1 Std. Regen
Sa, 25.05. 20:30 0.1 l/m2 in 1 Std. Schneeregen
Ortszeit Stärke Spitze Richtung
km/h Bft. km/h Grad Sektor
Sa, 25.05. 20:00 11 2 40 320° NW
Sa, 25.05. 14:00 14 3 40 330° NW
Sa, 25.05. 8:00 11 2 13 30° NO
Sa, 25.05. 2:00 7 2 22 170° S
Fr, 24.05. 20:00 17 3 31 340° N
Fr, 24.05. 14:00 14 3 29 10° N
Fr, 24.05. 8:00 0 0 22 - -
Fr, 24.05. 2:00 20 4 24 150° SO
Ortszeit Stärke Spitze Richtung
km/h Bft. km/h Grad Sektor
Sa, 25.05. 23:30 17 3 22 340° N
Sa, 25.05. 23:20 17 3 - 340° N
Sa, 25.05. 23:10 17 3 - 330° NW
Sa, 25.05. 23:00 15 3 20 340° N
Sa, 25.05. 22:50 15 3 - 340° N
Sa, 25.05. 22:40 17 3 - 340° N
Sa, 25.05. 22:30 14 3 18 340° N
Sa, 25.05. 22:00 4 1 18 80° O
Sa, 25.05. 21:30 14 3 18 360° N
Sa, 25.05. 21:00 14 3 22 350° N
Sa, 25.05. 20:30 13 3 17 330° NW
Ortszeit Untergrenze Bedeckung Gattung
total tief tief mittel hoch
Sa, 25.05. 20:00 780 m 7/8 5/8 - - -
Sa, 25.05. 14:00 750 m 6/8 6/8 - - -
Sa, 25.05. 8:00 1500 m 5/8 5/8 - - -
Sa, 25.05. 2:00 2100 m 8/8 6/8 - - -
Fr, 24.05. 20:00 12000 m 1/8 0/8 - - -
Fr, 24.05. 14:00 510 m 7/8 6/8 - - -
Fr, 24.05. 8:00 3900 m 2/8 2/8 - - -
Fr, 24.05. 2:00 4800 m 1/8 1/8 - - -
Ortszeit Bedeckungsgrad in Achtel und Wolkenuntergrenze
Sa, 25.05. 23:30 2(6000m)
Sa, 25.05. 23:20 2(6000m)
Sa, 25.05. 23:10 1(6000m)
Sa, 25.05. 23:00 1(2700m)
Sa, 25.05. 22:50 1(2700m)
Sa, 25.05. 22:40 1(180m) 3(2700m)
Sa, 25.05. 22:30 6(150m) 7(300m) 7(1230m)
Sa, 25.05. 22:00 2(<30m) 8(1020m) 8(3000m)
Sa, 25.05. 21:30 1(660m) 6(900m) 8(3000m)
Sa, 25.05. 21:00 3(840m) 4(1800m) 8(3300m)
Sa, 25.05. 20:30 2(540m) 7(990m) 7(1290m)
Ortszeit Stationsdruck (hPa) Tendenz (hPa in 3 Std.)
Sa, 25.05. 20:00 851 + 0,4
Sa, 25.05. 14:00 850 - 0,2
Sa, 25.05. 8:00 850 + 0,5
Sa, 25.05. 2:00 850 - 0,2
Fr, 24.05. 20:00 849 - 0,6
Fr, 24.05. 14:00 850 - 0,1
Fr, 24.05. 8:00 850 + 0,3
Fr, 24.05. 2:00 850 - 0,8
Ortszeit Stationsdruck (hPa) Tendenz (hPa in 3 Std.)
Sa, 25.05. 23:30 852 + 0,6
Sa, 25.05. 23:20 852 keine Meldung
Sa, 25.05. 23:10 852 keine Meldung
Sa, 25.05. 23:00 852 + 0,7
Sa, 25.05. 22:50 852 keine Meldung
Sa, 25.05. 22:40 852 keine Meldung
Sa, 25.05. 22:30 852 + 0,8
Sa, 25.05. 22:00 851 + 0,6
Sa, 25.05. 21:30 851 + 0,6
Sa, 25.05. 21:00 851 + 0,6
Sa, 25.05. 20:30 851 + 0,6
Ortszeit Schneehöhe (cm)
Sa, 25.05. 20:00 0
Sa, 25.05. 14:00 0
Sa, 25.05. 8:00 0
Sa, 25.05. 2:00 0
Fr, 24.05. 20:00 0
Fr, 24.05. 14:00 0
Fr, 24.05. 8:00 0
Fr, 24.05. 2:00 0
Ortszeit Schneehöhe (cm)
Sa, 25.05. 23:30 0
Sa, 25.05. 23:20 0
Sa, 25.05. 23:10 0
Sa, 25.05. 23:00 0
Sa, 25.05. 22:50 0
Sa, 25.05. 22:40 0
Sa, 25.05. 22:30 0
Sa, 25.05. 22:00 0
Sa, 25.05. 21:30 0
Sa, 25.05. 21:00 0
Sa, 25.05. 20:30 0
Link zu dieser Seite / Seite empfehlen

Das Wetter in ...